METAR AND TAF INFORMATION
METAR FOR SBCP
ADDS - METARS form results

(0654 UTC 06 June 2020)
Data provider http://aviationweather.gov/metar/data/
 
Forecast for: SBCP (CAMPOS/BARTOLOME, BR)
Text: TAF SBCP 052100Z 0600/0612 00000KT 9999 FEW020 TN19/0608Z TX22/0612Z
Forecast period: 0000 to 1000 UTC 06 June 2020
Forecast type: FROM: standard forecast or significant change
Winds: calm
Visibility: 6 or more miles 10+ km)
Ceiling: at least 12,000 feet AGL
Clouds: few clouds at 2000 feet AGL
Weather: no significant weather forecast for this period
Text: BECMG 0610/0612 34006KT SCT020 RMK PFM
Forecast period: 1000 to 1200 UTC 06 June 2020
Forecast type: BECOMING: Conditions expected to become as follows by 1200 UTC 06 June 2020
Winds: from the NNW (340 degrees) at 7 MPH (6 knots; 3.1 m/s)
Visibility: 6 or more miles 10+ km)
Ceiling: at least 12,000 feet AGL
Clouds: scattered clouds at 2000 feet AGL
Weather: no significant weather forecast for this period

 AIRPORT MAP

 RUNWAY INFORMATION
Runway 7 Runway length 5066 ft Runway width 148 ft
Runway elevation 0 ft Runway displaced threshold 0 ft Runway heading 0
Runway 25 Runway length 5066 ft Runway width 148 ft
Runway elevation 0 ft Runway displaced threshold 0 ft Runway heading 0

 AIRPORT FREQUENCIES
Type AFIS Name CAMPOS RDO Frequency 125.7 MHZ

 AIRPORT NEAR NAVIGATION AIDS
Type NDB Name Campos Frequency 225 KHZ



Powered by Virtual Airlines Manager [v2.6.2]